Terminal Aerodrome Forecast
Issued by NWS

Home | Current Version | Previous Version | Text Only | Print | Product List | Glossary On
Versions: 1 2 3 4 5 6 7 8 9 10 11 12 13 14 15 16
000
FTUS43 KMQT 260702 AAB
TAFSAW
TAF AMD
KSAW 260702Z 2607/2706 02005KT 5SM BR VCSH BKN002
     FM260800 03003KT 2SM BR VCSH BKN002
     FM261000 00000KT 1/2SM FG OVC002
     FM261300 00000KT 1/2SM FG OVC008
     FM261400 18003KT 1SM BR OVC008
     FM261600 20005KT P6SM VCSH OVC030
     FM270000 27005KT P6SM OVC035
     FM270200 29006KT P6SM BKN025=

USA.gov is the U.S. government's official web portal to all federal, state and local government web resources and services.